sensor_id;sensor_type;location;lat;lon;timestamp;temperature;humidity
22781;DHT22;11557;50.884;4.322;2023-05-10T00:01:24;15.30;99.90
22781;DHT22;11557;50.884;4.322;2023-05-10T00:03:49;15.30;99.90
22781;DHT22;11557;50.884;4.322;2023-05-10T00:06:15;15.30;99.90
22781;DHT22;11557;50.884;4.322;2023-05-10T00:08:41;15.20;99.90
22781;DHT22;11557;50.884;4.322;2023-05-10T00:11:07;15.20;99.90
22781;DHT22;11557;50.884;4.322;2023-05-10T00:13:33;15.00;99.90
22781;DHT22;11557;50.884;4.322;2023-05-10T00:15:58;15.00;99.90
22781;DHT22;11557;50.884;4.322;2023-05-10T00:18:24;15.00;99.90
22781;DHT22;11557;50.884;4.322;2023-05-10T00:20:50;15.10;99.90
22781;DHT22;11557;50.884;4.322;2023-05-10T00:23:16;15.20;99.90
22781;DHT22;11557;50.884;4.322;2023-05-10T00:25:41;15.20;99.90
22781;DHT22;11557;50.884;4.322;2023-05-10T00:28:07;15.30;99.90
22781;DHT22;11557;50.884;4.322;2023-05-10T00:30:33;15.40;99.90
22781;DHT22;11557;50.884;4.322;2023-05-10T00:32:59;15.50;99.90
22781;DHT22;11557;50.884;4.322;2023-05-10T00:35:24;15.60;99.90
22781;DHT22;11557;50.884;4.322;2023-05-10T00:37:50;15.50;99.90
22781;DHT22;11557;50.884;4.322;2023-05-10T00:40:16;15.60;99.90
22781;DHT22;11557;50.884;4.322;2023-05-10T00:42:41;15.60;99.90
22781;DHT22;11557;50.884;4.322;2023-05-10T00:45:07;15.70;99.90
22781;DHT22;11557;50.884;4.322;2023-05-10T00:47:34;15.80;99.90
22781;DHT22;11557;50.884;4.322;2023-05-10T00:50:00;15.80;99.90
22781;DHT22;11557;50.884;4.322;2023-05-10T00:52:28;15.70;99.90
22781;DHT22;11557;50.884;4.322;2023-05-10T00:54:54;15.50;99.90
22781;DHT22;11557;50.884;4.322;2023-05-10T00:57:21;15.40;99.90
22781;DHT22;11557;50.884;4.322;2023-05-10T00:59:46;15.30;99.90
22781;DHT22;11557;50.884;4.322;2023-05-10T01:02:13;15.20;99.90
22781;DHT22;11557;50.884;4.322;2023-05-10T01:04:39;15.30;99.90
22781;DHT22;11557;50.884;4.322;2023-05-10T01:07:04;15.40;99.90
22781;DHT22;11557;50.884;4.322;2023-05-10T01:09:30;15.50;99.90
22781;DHT22;11557;50.884;4.322;2023-05-10T01:11:57;15.60;99.90
22781;DHT22;11557;50.884;4.322;2023-05-10T01:14:25;15.50;99.90
22781;DHT22;11557;50.884;4.322;2023-05-10T01:16:52;15.60;99.90
22781;DHT22;11557;50.884;4.322;2023-05-10T01:19:29;15.40;99.90
22781;DHT22;11557;50.884;4.322;2023-05-10T01:33:41;15.10;99.90
22781;DHT22;11557;50.884;4.322;2023-05-10T01:41:56;14.80;99.90
22781;DHT22;11557;50.884;4.322;2023-05-10T01:44:31;14.80;99.90
22781;DHT22;11557;50.884;4.322;2023-05-10T01:47:10;14.80;99.90
22781;DHT22;11557;50.884;4.322;2023-05-10T01:49:55;14.60;99.90
22781;DHT22;11557;50.884;4.322;2023-05-10T01:52:32;14.70;99.90
22781;DHT22;11557;50.884;4.322;2023-05-10T01:55:18;14.70;99.90
22781;DHT22;11557;50.884;4.322;2023-05-10T01:57:48;14.70;99.90
22781;DHT22;11557;50.884;4.322;2023-05-10T02:00:16;14.70;99.90
22781;DHT22;11557;50.884;4.322;2023-05-10T02:02:48;14.60;99.90
22781;DHT22;11557;50.884;4.322;2023-05-10T02:05:16;14.70;99.90
22781;DHT22;11557;50.884;4.322;2023-05-10T02:07:43;14.70;99.90
22781;DHT22;11557;50.884;4.322;2023-05-10T02:10:11;14.80;99.90
22781;DHT22;11557;50.884;4.322;2023-05-10T02:12:41;15.00;99.90
22781;DHT22;11557;50.884;4.322;2023-05-10T02:15:07;14.90;99.90
22781;DHT22;11557;50.884;4.322;2023-05-10T02:17:35;14.80;99.90
22781;DHT22;11557;50.884;4.322;2023-05-10T02:20:05;14.70;99.90
22781;DHT22;11557;50.884;4.322;2023-05-10T02:22:32;14.90;99.90
22781;DHT22;11557;50.884;4.322;2023-05-10T02:25:00;14.60;99.90
22781;DHT22;11557;50.884;4.322;2023-05-10T02:27:27;14.60;99.90
22781;DHT22;11557;50.884;4.322;2023-05-10T02:29:53;14.80;99.90
22781;DHT22;11557;50.884;4.322;2023-05-10T02:32:21;14.70;99.90
22781;DHT22;11557;50.884;4.322;2023-05-10T02:34:48;14.70;99.90
22781;DHT22;11557;50.884;4.322;2023-05-10T02:37:19;14.60;99.90
22781;DHT22;11557;50.884;4.322;2023-05-10T02:39:47;14.60;99.90
22781;DHT22;11557;50.884;4.322;2023-05-10T02:42:16;14.50;99.90
22781;DHT22;11557;50.884;4.322;2023-05-10T02:44:44;14.40;99.90
22781;DHT22;11557;50.884;4.322;2023-05-10T02:47:11;14.50;99.90
22781;DHT22;11557;50.884;4.322;2023-05-10T02:49:36;14.60;99.90
22781;DHT22;11557;50.884;4.322;2023-05-10T02:52:05;14.70;99.90
22781;DHT22;11557;50.884;4.322;2023-05-10T02:54:38;14.80;99.90
22781;DHT22;11557;50.884;4.322;2023-05-10T02:57:05;14.80;99.90
22781;DHT22;11557;50.884;4.322;2023-05-10T02:59:31;14.70;99.90
22781;DHT22;11557;50.884;4.322;2023-05-10T03:01:59;14.50;99.90
22781;DHT22;11557;50.884;4.322;2023-05-10T03:04:25;14.40;99.90
22781;DHT22;11557;50.884;4.322;2023-05-10T03:06:51;14.30;99.90
22781;DHT22;11557;50.884;4.322;2023-05-10T03:09:17;14.30;99.90
22781;DHT22;11557;50.884;4.322;2023-05-10T03:15:17;14.40;99.90
22781;DHT22;11557;50.884;4.322;2023-05-10T03:17:51;14.50;99.90
22781;DHT22;11557;50.884;4.322;2023-05-10T03:20:26;14.40;99.90
22781;DHT22;11557;50.884;4.322;2023-05-10T03:25:48;14.10;99.90
22781;DHT22;11557;50.884;4.322;2023-05-10T03:28:15;14.20;99.90
22781;DHT22;11557;50.884;4.322;2023-05-10T03:30:42;14.30;99.90
22781;DHT22;11557;50.884;4.322;2023-05-10T03:33:08;14.40;99.90
22781;DHT22;11557;50.884;4.322;2023-05-10T03:35:34;14.40;99.90
22781;DHT22;11557;50.884;4.322;2023-05-10T03:38:00;14.40;99.90
22781;DHT22;11557;50.884;4.322;2023-05-10T03:40:26;14.30;99.90
22781;DHT22;11557;50.884;4.322;2023-05-10T03:42:54;14.30;99.90
22781;DHT22;11557;50.884;4.322;2023-05-10T03:45:20;14.10;99.90
22781;DHT22;11557;50.884;4.322;2023-05-10T03:47:46;14.00;99.90
22781;DHT22;11557;50.884;4.322;2023-05-10T03:50:12;13.90;99.90
22781;DHT22;11557;50.884;4.322;2023-05-10T03:52:37;14.10;99.90
22781;DHT22;11557;50.884;4.322;2023-05-10T03:55:05;14.20;99.90
22781;DHT22;11557;50.884;4.322;2023-05-10T03:57:31;14.30;99.90
22781;DHT22;11557;50.884;4.322;2023-05-10T03:59:57;14.30;99.90
22781;DHT22;11557;50.884;4.322;2023-05-10T04:02:23;14.20;99.90
22781;DHT22;11557;50.884;4.322;2023-05-10T04:04:49;14.30;99.90
22781;DHT22;11557;50.884;4.322;2023-05-10T04:07:14;14.20;99.90
22781;DHT22;11557;50.884;4.322;2023-05-10T04:09:40;14.30;99.90
22781;DHT22;11557;50.884;4.322;2023-05-10T04:12:06;14.30;99.90
22781;DHT22;11557;50.884;4.322;2023-05-10T04:14:32;14.20;99.90
22781;DHT22;11557;50.884;4.322;2023-05-10T04:16:57;14.00;99.90
22781;DHT22;11557;50.884;4.322;2023-05-10T04:19:23;14.00;99.90
22781;DHT22;11557;50.884;4.322;2023-05-10T04:21:49;14.10;99.90
22781;DHT22;11557;50.884;4.322;2023-05-10T04:24:15;14.10;99.90
22781;DHT22;11557;50.884;4.322;2023-05-10T04:26:40;14.10;99.90
22781;DHT22;11557;50.884;4.322;2023-05-10T04:29:06;14.00;99.90
22781;DHT22;11557;50.884;4.322;2023-05-10T04:31:32;14.10;99.90
22781;DHT22;11557;50.884;4.322;2023-05-10T04:33:57;14.10;99.90
22781;DHT22;11557;50.884;4.322;2023-05-10T04:36:23;14.10;99.90
22781;DHT22;11557;50.884;4.322;2023-05-10T04:38:49;14.20;99.90
22781;DHT22;11557;50.884;4.322;2023-05-10T04:41:14;14.30;99.90
22781;DHT22;11557;50.884;4.322;2023-05-10T04:43:40;14.30;99.90
22781;DHT22;11557;50.884;4.322;2023-05-10T04:46:06;14.40;99.90
22781;DHT22;11557;50.884;4.322;2023-05-10T04:48:35;14.20;99.90
22781;DHT22;11557;50.884;4.322;2023-05-10T04:51:00;14.40;99.90
22781;DHT22;11557;50.884;4.322;2023-05-10T04:53:26;14.60;99.90
22781;DHT22;11557;50.884;4.322;2023-05-10T04:55:52;14.80;99.90
22781;DHT22;11557;50.884;4.322;2023-05-10T04:58:17;14.80;99.90
22781;DHT22;11557;50.884;4.322;2023-05-10T05:00:43;14.70;99.90
22781;DHT22;11557;50.884;4.322;2023-05-10T05:03:09;14.80;99.90
22781;DHT22;11557;50.884;4.322;2023-05-10T05:05:35;14.80;99.90
22781;DHT22;11557;50.884;4.322;2023-05-10T05:08:00;14.50;99.90
22781;DHT22;11557;50.884;4.322;2023-05-10T05:10:26;14.40;99.90
22781;DHT22;11557;50.884;4.322;2023-05-10T05:12:52;14.30;99.90
22781;DHT22;11557;50.884;4.322;2023-05-10T05:15:17;14.40;99.90
22781;DHT22;11557;50.884;4.322;2023-05-10T05:17:43;14.40;99.90
22781;DHT22;11557;50.884;4.322;2023-05-10T05:20:09;14.30;99.90
22781;DHT22;11557;50.884;4.322;2023-05-10T05:22:38;14.30;99.90
22781;DHT22;11557;50.884;4.322;2023-05-10T05:25:04;14.40;99.90
22781;DHT22;11557;50.884;4.322;2023-05-10T05:27:31;14.50;99.90
22781;DHT22;11557;50.884;4.322;2023-05-10T05:29:57;14.30;99.90
22781;DHT22;11557;50.884;4.322;2023-05-10T05:32:24;14.20;99.90
22781;DHT22;11557;50.884;4.322;2023-05-10T05:34:50;14.10;99.90
22781;DHT22;11557;50.884;4.322;2023-05-10T05:37:17;14.00;99.90
22781;DHT22;11557;50.884;4.322;2023-05-10T05:39:43;14.00;99.90
22781;DHT22;11557;50.884;4.322;2023-05-10T05:42:10;14.10;99.90
22781;DHT22;11557;50.884;4.322;2023-05-10T05:44:36;14.20;99.90
22781;DHT22;11557;50.884;4.322;2023-05-10T05:47:02;14.40;99.90
22781;DHT22;11557;50.884;4.322;2023-05-10T05:49:28;14.60;99.90
22781;DHT22;11557;50.884;4.322;2023-05-10T05:51:54;14.80;99.90
22781;DHT22;11557;50.884;4.322;2023-05-10T05:54:23;14.90;99.90
22781;DHT22;11557;50.884;4.322;2023-05-10T05:56:49;14.90;99.90
22781;DHT22;11557;50.884;4.322;2023-05-10T05:59:14;14.70;99.90
22781;DHT22;11557;50.884;4.322;2023-05-10T06:01:40;14.90;99.90
22781;DHT22;11557;50.884;4.322;2023-05-10T06:04:06;15.00;99.90
22781;DHT22;11557;50.884;4.322;2023-05-10T06:06:31;15.10;99.90
22781;DHT22;11557;50.884;4.322;2023-05-10T06:08:57;15.20;99.90
22781;DHT22;11557;50.884;4.322;2023-05-10T06:11:23;15.00;99.90
22781;DHT22;11557;50.884;4.322;2023-05-10T06:13:49;14.90;99.90
22781;DHT22;11557;50.884;4.322;2023-05-10T06:16:15;15.00;99.90
22781;DHT22;11557;50.884;4.322;2023-05-10T06:18:40;15.00;99.90
22781;DHT22;11557;50.884;4.322;2023-05-10T06:21:06;15.10;99.90
22781;DHT22;11557;50.884;4.322;2023-05-10T06:23:32;15.00;99.90
22781;DHT22;11557;50.884;4.322;2023-05-10T06:25:58;14.90;99.90
22781;DHT22;11557;50.884;4.322;2023-05-10T06:28:23;15.00;99.90
22781;DHT22;11557;50.884;4.322;2023-05-10T06:30:49;15.00;99.90
22781;DHT22;11557;50.884;4.322;2023-05-10T06:33:14;14.60;99.90
22781;DHT22;11557;50.884;4.322;2023-05-10T06:35:42;14.70;99.90
22781;DHT22;11557;50.884;4.322;2023-05-10T06:38:08;14.70;99.90
22781;DHT22;11557;50.884;4.322;2023-05-10T06:40:33;14.80;99.90
22781;DHT22;11557;50.884;4.322;2023-05-10T06:42:59;14.90;99.90
22781;DHT22;11557;50.884;4.322;2023-05-10T06:45:25;15.00;99.90
22781;DHT22;11557;50.884;4.322;2023-05-10T06:47:50;15.00;99.90
22781;DHT22;11557;50.884;4.322;2023-05-10T06:50:16;15.20;99.90
22781;DHT22;11557;50.884;4.322;2023-05-10T06:52:41;15.20;99.90
22781;DHT22;11557;50.884;4.322;2023-05-10T06:55:08;15.00;99.90
22781;DHT22;11557;50.884;4.322;2023-05-10T06:57:34;15.10;99.90
22781;DHT22;11557;50.884;4.322;2023-05-10T07:00:00;15.00;99.90
22781;DHT22;11557;50.884;4.322;2023-05-10T07:02:26;14.90;99.90
22781;DHT22;11557;50.884;4.322;2023-05-10T07:04:52;14.90;99.90
22781;DHT22;11557;50.884;4.322;2023-05-10T07:07:18;15.00;99.90
22781;DHT22;11557;50.884;4.322;2023-05-10T07:09:44;14.90;99.90
22781;DHT22;11557;50.884;4.322;2023-05-10T07:12:10;14.90;99.90
22781;DHT22;11557;50.884;4.322;2023-05-10T07:14:35;15.00;99.90
22781;DHT22;11557;50.884;4.322;2023-05-10T07:17:01;14.70;99.90
22781;DHT22;11557;50.884;4.322;2023-05-10T07:19:27;14.80;99.90
22781;DHT22;11557;50.884;4.322;2023-05-10T07:21:54;15.00;99.90
22781;DHT22;11557;50.884;4.322;2023-05-10T07:24:20;15.00;99.90
22781;DHT22;11557;50.884;4.322;2023-05-10T07:26:46;15.10;99.90
22781;DHT22;11557;50.884;4.322;2023-05-10T07:29:11;14.90;99.90
22781;DHT22;11557;50.884;4.322;2023-05-10T07:31:37;14.90;99.90
22781;DHT22;11557;50.884;4.322;2023-05-10T07:34:03;14.80;99.90
22781;DHT22;11557;50.884;4.322;2023-05-10T07:36:28;14.70;99.90
22781;DHT22;11557;50.884;4.322;2023-05-10T07:38:54;14.90;99.90
22781;DHT22;11557;50.884;4.322;2023-05-10T07:41:20;14.80;99.90
22781;DHT22;11557;50.884;4.322;2023-05-10T07:43:46;14.70;99.90
22781;DHT22;11557;50.884;4.322;2023-05-10T07:46:12;14.80;99.90
22781;DHT22;11557;50.884;4.322;2023-05-10T07:48:37;14.60;99.90
22781;DHT22;11557;50.884;4.322;2023-05-10T07:51:03;14.50;99.90
22781;DHT22;11557;50.884;4.322;2023-05-10T07:53:29;14.40;99.90
22781;DHT22;11557;50.884;4.322;2023-05-10T07:55:57;14.40;99.90
22781;DHT22;11557;50.884;4.322;2023-05-10T07:58:24;14.40;99.90
22781;DHT22;11557;50.884;4.322;2023-05-10T08:00:49;14.40;99.90
22781;DHT22;11557;50.884;4.322;2023-05-10T08:03:15;14.50;99.90
22781;DHT22;11557;50.884;4.322;2023-05-10T08:05:41;14.80;99.90
22781;DHT22;11557;50.884;4.322;2023-05-10T08:08:07;14.70;99.90
22781;DHT22;11557;50.884;4.322;2023-05-10T08:10:32;14.70;99.90
22781;DHT22;11557;50.884;4.322;2023-05-10T08:12:58;14.80;99.90
22781;DHT22;11557;50.884;4.322;2023-05-10T08:15:25;14.70;99.90
22781;DHT22;11557;50.884;4.322;2023-05-10T08:17:53;14.80;99.90
22781;DHT22;11557;50.884;4.322;2023-05-10T08:20:19;14.70;99.90
22781;DHT22;11557;50.884;4.322;2023-05-10T08:22:46;14.80;99.90
22781;DHT22;11557;50.884;4.322;2023-05-10T08:25:12;14.70;99.90
22781;DHT22;11557;50.884;4.322;2023-05-10T08:27:38;14.70;99.90
22781;DHT22;11557;50.884;4.322;2023-05-10T08:30:04;14.40;99.90
22781;DHT22;11557;50.884;4.322;2023-05-10T08:32:30;14.40;99.90
22781;DHT22;11557;50.884;4.322;2023-05-10T08:34:56;14.60;99.90
22781;DHT22;11557;50.884;4.322;2023-05-10T08:37:23;14.60;99.90
22781;DHT22;11557;50.884;4.322;2023-05-10T08:39:49;14.60;99.90
22781;DHT22;11557;50.884;4.322;2023-05-10T08:42:19;14.80;99.90
22781;DHT22;11557;50.884;4.322;2023-05-10T08:44:48;14.90;99.90
22781;DHT22;11557;50.884;4.322;2023-05-10T08:47:16;15.00;99.90
22781;DHT22;11557;50.884;4.322;2023-05-10T08:49:44;15.20;99.90
22781;DHT22;11557;50.884;4.322;2023-05-10T08:52:14;15.20;99.90
22781;DHT22;11557;50.884;4.322;2023-05-10T08:54:41;15.00;99.90
22781;DHT22;11557;50.884;4.322;2023-05-10T08:57:07;15.00;99.90
22781;DHT22;11557;50.884;4.322;2023-05-10T08:59:33;15.20;99.90
22781;DHT22;11557;50.884;4.322;2023-05-10T09:01:59;15.20;99.90
22781;DHT22;11557;50.884;4.322;2023-05-10T09:04:25;15.40;99.90
22781;DHT22;11557;50.884;4.322;2023-05-10T09:06:51;15.60;99.90
22781;DHT22;11557;50.884;4.322;2023-05-10T09:09:18;15.50;99.90
22781;DHT22;11557;50.884;4.322;2023-05-10T09:11:45;15.70;99.90
22781;DHT22;11557;50.884;4.322;2023-05-10T09:14:12;15.60;99.90
22781;DHT22;11557;50.884;4.322;2023-05-10T09:16:39;15.50;99.90
22781;DHT22;11557;50.884;4.322;2023-05-10T09:19:05;15.20;99.90
22781;DHT22;11557;50.884;4.322;2023-05-10T09:21:32;15.10;99.90
22781;DHT22;11557;50.884;4.322;2023-05-10T09:24:03;15.00;99.90
22781;DHT22;11557;50.884;4.322;2023-05-10T09:26:29;15.00;99.90
22781;DHT22;11557;50.884;4.322;2023-05-10T09:28:58;15.20;99.90
22781;DHT22;11557;50.884;4.322;2023-05-10T09:31:28;15.20;99.90
22781;DHT22;11557;50.884;4.322;2023-05-10T09:34:08;15.20;99.90
22781;DHT22;11557;50.884;4.322;2023-05-10T09:36:33;15.10;99.90
22781;DHT22;11557;50.884;4.322;2023-05-10T09:38:59;15.20;99.90
22781;DHT22;11557;50.884;4.322;2023-05-10T09:41:25;15.20;99.90
22781;DHT22;11557;50.884;4.322;2023-05-10T09:43:55;15.40;99.90
22781;DHT22;11557;50.884;4.322;2023-05-10T09:46:21;15.40;99.90
22781;DHT22;11557;50.884;4.322;2023-05-10T09:48:48;15.30;99.90
22781;DHT22;11557;50.884;4.322;2023-05-10T09:51:24;15.20;99.90
22781;DHT22;11557;50.884;4.322;2023-05-10T09:54:09;15.10;99.90
22781;DHT22;11557;50.884;4.322;2023-05-10T09:56:36;15.00;99.90
22781;DHT22;11557;50.884;4.322;2023-05-10T09:59:04;15.00;99.90
22781;DHT22;11557;50.884;4.322;2023-05-10T10:01:31;14.90;99.90
22781;DHT22;11557;50.884;4.322;2023-05-10T10:03:58;15.00;99.90
22781;DHT22;11557;50.884;4.322;2023-05-10T10:06:24;15.10;99.90
22781;DHT22;11557;50.884;4.322;2023-05-10T10:08:51;15.30;99.90
22781;DHT22;11557;50.884;4.322;2023-05-10T10:11:17;15.30;99.90
22781;DHT22;11557;50.884;4.322;2023-05-10T10:13:43;15.40;99.90
22781;DHT22;11557;50.884;4.322;2023-05-10T10:16:09;15.40;99.90
22781;DHT22;11557;50.884;4.322;2023-05-10T10:18:36;15.50;99.90
22781;DHT22;11557;50.884;4.322;2023-05-10T10:21:06;15.40;99.90
22781;DHT22;11557;50.884;4.322;2023-05-10T10:23:32;15.50;99.90
22781;DHT22;11557;50.884;4.322;2023-05-10T10:25:58;15.60;99.90
22781;DHT22;11557;50.884;4.322;2023-05-10T10:28:36;15.70;99.90
22781;DHT22;11557;50.884;4.322;2023-05-10T10:31:31;15.80;99.90
22781;DHT22;11557;50.884;4.322;2023-05-10T10:34:11;15.70;99.90
22781;DHT22;11557;50.884;4.322;2023-05-10T10:36:46;15.70;99.90
22781;DHT22;11557;50.884;4.322;2023-05-10T10:39:15;15.80;99.90
22781;DHT22;11557;50.884;4.322;2023-05-10T10:41:55;16.10;99.90
22781;DHT22;11557;50.884;4.322;2023-05-10T10:49:31;16.10;99.90
22781;DHT22;11557;50.884;4.322;2023-05-10T10:55:15;16.00;99.90
22781;DHT22;11557;50.884;4.322;2023-05-10T11:00:32;15.70;99.90
22781;DHT22;11557;50.884;4.322;2023-05-10T11:03:00;15.70;99.90
22781;DHT22;11557;50.884;4.322;2023-05-10T11:05:37;15.80;99.90
22781;DHT22;11557;50.884;4.322;2023-05-10T11:08:26;15.70;99.90
22781;DHT22;11557;50.884;4.322;2023-05-10T11:13:40;15.60;99.90
22781;DHT22;11557;50.884;4.322;2023-05-10T11:16:11;15.70;99.90
22781;DHT22;11557;50.884;4.322;2023-05-10T11:18:37;15.70;99.90
22781;DHT22;11557;50.884;4.322;2023-05-10T11:21:03;15.90;99.90
22781;DHT22;11557;50.884;4.322;2023-05-10T11:26:13;16.20;99.90
22781;DHT22;11557;50.884;4.322;2023-05-10T11:28:47;16.30;99.90
22781;DHT22;11557;50.884;4.322;2023-05-10T11:31:20;16.50;99.90
22781;DHT22;11557;50.884;4.322;2023-05-10T11:33:47;16.70;99.90
22781;DHT22;11557;50.884;4.322;2023-05-10T11:36:21;16.70;99.90
22781;DHT22;11557;50.884;4.322;2023-05-10T11:38:48;16.80;99.90
22781;DHT22;11557;50.884;4.322;2023-05-10T11:41:15;16.80;99.90
22781;DHT22;11557;50.884;4.322;2023-05-10T11:43:42;16.80;99.90
22781;DHT22;11557;50.884;4.322;2023-05-10T11:46:11;16.60;99.90
22781;DHT22;11557;50.884;4.322;2023-05-10T11:48:40;16.50;99.90
22781;DHT22;11557;50.884;4.322;2023-05-10T11:51:10;16.40;99.90
22781;DHT22;11557;50.884;4.322;2023-05-10T11:53:36;16.60;99.90
22781;DHT22;11557;50.884;4.322;2023-05-10T11:56:07;16.60;99.90
22781;DHT22;11557;50.884;4.322;2023-05-10T11:58:33;16.80;99.90
22781;DHT22;11557;50.884;4.322;2023-05-10T12:00:59;16.80;99.90
22781;DHT22;11557;50.884;4.322;2023-05-10T12:03:28;17.00;99.90
22781;DHT22;11557;50.884;4.322;2023-05-10T12:05:55;17.00;99.90
22781;DHT22;11557;50.884;4.322;2023-05-10T12:08:25;16.90;99.90
22781;DHT22;11557;50.884;4.322;2023-05-10T12:10:51;17.00;99.90
22781;DHT22;11557;50.884;4.322;2023-05-10T12:13:18;16.80;99.90
22781;DHT22;11557;50.884;4.322;2023-05-10T12:15:44;16.70;99.90
22781;DHT22;11557;50.884;4.322;2023-05-10T12:18:14;16.70;99.90
22781;DHT22;11557;50.884;4.322;2023-05-10T12:20:40;16.90;99.90
22781;DHT22;11557;50.884;4.322;2023-05-10T12:23:08;16.80;99.90
22781;DHT22;11557;50.884;4.322;2023-05-10T12:25:36;16.60;99.90
22781;DHT22;11557;50.884;4.322;2023-05-10T12:28:06;16.60;99.90
22781;DHT22;11557;50.884;4.322;2023-05-10T12:30:34;16.50;99.90
22781;DHT22;11557;50.884;4.322;2023-05-10T12:33:02;16.70;99.90
22781;DHT22;11557;50.884;4.322;2023-05-10T12:35:32;16.80;99.90
22781;DHT22;11557;50.884;4.322;2023-05-10T12:37:58;17.00;99.90
22781;DHT22;11557;50.884;4.322;2023-05-10T12:40:24;16.90;99.90
22781;DHT22;11557;50.884;4.322;2023-05-10T12:42:50;16.90;99.90
22781;DHT22;11557;50.884;4.322;2023-05-10T12:45:17;16.90;99.90
22781;DHT22;11557;50.884;4.322;2023-05-10T12:47:43;16.90;99.90
22781;DHT22;11557;50.884;4.322;2023-05-10T12:50:09;17.20;99.90
22781;DHT22;11557;50.884;4.322;2023-05-10T12:52:36;17.60;99.90
22781;DHT22;11557;50.884;4.322;2023-05-10T12:55:02;17.50;99.90
22781;DHT22;11557;50.884;4.322;2023-05-10T12:57:28;17.40;99.90
22781;DHT22;11557;50.884;4.322;2023-05-10T12:59:55;17.20;99.90
22781;DHT22;11557;50.884;4.322;2023-05-10T13:02:21;17.20;99.90
22781;DHT22;11557;50.884;4.322;2023-05-10T13:04:48;17.30;99.90
22781;DHT22;11557;50.884;4.322;2023-05-10T13:07:14;17.40;99.90
22781;DHT22;11557;50.884;4.322;2023-05-10T13:09:39;17.40;99.90
22781;DHT22;11557;50.884;4.322;2023-05-10T13:12:05;17.90;99.90
22781;DHT22;11557;50.884;4.322;2023-05-10T13:14:31;18.50;99.90
22781;DHT22;11557;50.884;4.322;2023-05-10T13:16:57;18.50;99.90
22781;DHT22;11557;50.884;4.322;2023-05-10T13:19:22;18.70;99.90
22781;DHT22;11557;50.884;4.322;2023-05-10T13:21:48;18.90;99.90
22781;DHT22;11557;50.884;4.322;2023-05-10T13:24:14;18.50;99.90
22781;DHT22;11557;50.884;4.322;2023-05-10T13:26:40;18.50;99.90
22781;DHT22;11557;50.884;4.322;2023-05-10T13:29:06;18.50;99.90
22781;DHT22;11557;50.884;4.322;2023-05-10T13:31:32;18.50;99.90
22781;DHT22;11557;50.884;4.322;2023-05-10T13:33:57;18.50;99.90
22781;DHT22;11557;50.884;4.322;2023-05-10T13:36:23;18.10;99.90
22781;DHT22;11557;50.884;4.322;2023-05-10T13:38:49;17.70;99.90
22781;DHT22;11557;50.884;4.322;2023-05-10T13:41:14;17.90;99.90
22781;DHT22;11557;50.884;4.322;2023-05-10T13:43:40;18.10;99.90
22781;DHT22;11557;50.884;4.322;2023-05-10T13:46:06;18.40;99.90
22781;DHT22;11557;50.884;4.322;2023-05-10T13:48:31;18.70;99.90
22781;DHT22;11557;50.884;4.322;2023-05-10T13:50:57;18.70;99.90
22781;DHT22;11557;50.884;4.322;2023-05-10T13:53:23;18.80;99.90
22781;DHT22;11557;50.884;4.322;2023-05-10T13:55:49;18.70;99.90
22781;DHT22;11557;50.884;4.322;2023-05-10T13:58:14;18.80;99.90
22781;DHT22;11557;50.884;4.322;2023-05-10T14:00:40;18.80;99.90
22781;DHT22;11557;50.884;4.322;2023-05-10T14:03:06;18.80;99.90
22781;DHT22;11557;50.884;4.322;2023-05-10T14:05:32;18.90;99.90
22781;DHT22;11557;50.884;4.322;2023-05-10T14:07:58;18.90;99.90
22781;DHT22;11557;50.884;4.322;2023-05-10T14:10:24;19.00;99.90
22781;DHT22;11557;50.884;4.322;2023-05-10T14:12:50;19.30;99.90
22781;DHT22;11557;50.884;4.322;2023-05-10T14:15:15;19.00;99.90
22781;DHT22;11557;50.884;4.322;2023-05-10T14:17:41;18.60;99.90
22781;DHT22;11557;50.884;4.322;2023-05-10T14:20:07;18.70;99.90
22781;DHT22;11557;50.884;4.322;2023-05-10T14:22:34;18.70;99.90
22781;DHT22;11557;50.884;4.322;2023-05-10T14:25:00;18.80;99.90
22781;DHT22;11557;50.884;4.322;2023-05-10T14:27:25;18.90;99.90
22781;DHT22;11557;50.884;4.322;2023-05-10T14:29:51;19.00;99.90
22781;DHT22;11557;50.884;4.322;2023-05-10T14:32:18;19.00;99.90
22781;DHT22;11557;50.884;4.322;2023-05-10T14:34:44;19.00;99.90
22781;DHT22;11557;50.884;4.322;2023-05-10T14:37:10;19.00;99.90
22781;DHT22;11557;50.884;4.322;2023-05-10T14:39:37;19.20;99.90
22781;DHT22;11557;50.884;4.322;2023-05-10T14:42:03;19.10;99.90
22781;DHT22;11557;50.884;4.322;2023-05-10T14:44:29;18.90;99.90
22781;DHT22;11557;50.884;4.322;2023-05-10T14:46:54;18.70;99.90
22781;DHT22;11557;50.884;4.322;2023-05-10T14:49:21;18.20;99.90
22781;DHT22;11557;50.884;4.322;2023-05-10T14:51:48;17.60;99.90
22781;DHT22;11557;50.884;4.322;2023-05-10T14:54:14;17.40;99.90
22781;DHT22;11557;50.884;4.322;2023-05-10T14:56:39;17.30;99.90
22781;DHT22;11557;50.884;4.322;2023-05-10T14:59:07;17.10;99.90
22781;DHT22;11557;50.884;4.322;2023-05-10T15:01:33;17.10;99.90
22781;DHT22;11557;50.884;4.322;2023-05-10T15:04:00;16.70;99.90
22781;DHT22;11557;50.884;4.322;2023-05-10T15:06:35;16.60;99.90
22781;DHT22;11557;50.884;4.322;2023-05-10T15:09:01;16.50;99.90
22781;DHT22;11557;50.884;4.322;2023-05-10T15:11:28;16.50;99.90
22781;DHT22;11557;50.884;4.322;2023-05-10T15:13:54;16.40;99.90
22781;DHT22;11557;50.884;4.322;2023-05-10T15:16:20;16.40;99.90
22781;DHT22;11557;50.884;4.322;2023-05-10T15:18:46;16.10;99.90
22781;DHT22;11557;50.884;4.322;2023-05-10T15:21:12;15.90;99.90
22781;DHT22;11557;50.884;4.322;2023-05-10T15:23:38;15.90;99.90
22781;DHT22;11557;50.884;4.322;2023-05-10T15:26:03;15.90;99.90
22781;DHT22;11557;50.884;4.322;2023-05-10T15:28:29;15.70;99.90
22781;DHT22;11557;50.884;4.322;2023-05-10T15:30:55;15.90;99.90
22781;DHT22;11557;50.884;4.322;2023-05-10T15:33:21;15.90;99.90
22781;DHT22;11557;50.884;4.322;2023-05-10T15:35:47;15.90;99.90
22781;DHT22;11557;50.884;4.322;2023-05-10T15:38:14;15.90;99.90
22781;DHT22;11557;50.884;4.322;2023-05-10T15:40:40;16.10;99.90
22781;DHT22;11557;50.884;4.322;2023-05-10T15:43:05;16.30;99.90
22781;DHT22;11557;50.884;4.322;2023-05-10T15:45:32;16.20;99.90
22781;DHT22;11557;50.884;4.322;2023-05-10T15:47:58;16.40;99.90
22781;DHT22;11557;50.884;4.322;2023-05-10T15:50:24;16.50;99.90
22781;DHT22;11557;50.884;4.322;2023-05-10T15:52:50;16.70;99.90
22781;DHT22;11557;50.884;4.322;2023-05-10T15:55:16;16.90;99.90
22781;DHT22;11557;50.884;4.322;2023-05-10T15:57:43;16.90;99.90
22781;DHT22;11557;50.884;4.322;2023-05-10T16:00:09;17.00;99.90
22781;DHT22;11557;50.884;4.322;2023-05-10T16:02:35;17.10;99.90
22781;DHT22;11557;50.884;4.322;2023-05-10T16:05:02;17.20;99.90
22781;DHT22;11557;50.884;4.322;2023-05-10T16:07:28;17.20;99.90
22781;DHT22;11557;50.884;4.322;2023-05-10T16:09:53;17.30;99.90